createdAt,value
2023-03-06T00:00:16.067Z,99588.34
2023-03-06T00:03:03.181Z,99587.08
2023-03-06T00:05:29.683Z,99589.64
2023-03-06T00:07:56.388Z,99589.70
2023-03-06T00:10:25.590Z,99590.55
2023-03-06T00:12:57.912Z,99591.55
2023-03-06T00:15:25.878Z,99587.44
2023-03-06T00:17:52.885Z,99585.77
2023-03-06T00:20:19.359Z,99585.17
2023-03-06T00:22:49.056Z,99584.61
2023-03-06T00:25:18.493Z,99587.51
2023-03-06T00:27:45.374Z,99583.73
2023-03-06T00:30:14.637Z,99585.84
2023-03-06T00:32:41.502Z,99584.30
2023-03-06T00:35:08.745Z,99574.37
2023-03-06T00:37:35.506Z,99578.38
2023-03-06T00:40:09.014Z,99577.52
2023-03-06T00:42:35.468Z,99574.77
2023-03-06T00:45:01.928Z,99575.53
2023-03-06T00:47:28.546Z,99569.63
2023-03-06T00:49:55.035Z,99567.45
2023-03-06T00:52:23.125Z,99565.31
2023-03-06T00:54:49.866Z,99561.80
2023-03-06T00:57:16.188Z,99554.68
2023-03-06T00:59:42.752Z,99554.60
2023-03-06T01:02:10.057Z,99549.58
2023-03-06T01:04:36.594Z,99542.35
2023-03-06T01:07:02.998Z,99542.10
2023-03-06T01:09:29.787Z,99540.34
2023-03-06T01:11:56.519Z,99537.27
2023-03-06T01:14:23.657Z,99537.39
2023-03-06T01:16:50.452Z,99535.50
2023-03-06T01:19:17.329Z,99535.77
2023-03-06T01:21:43.774Z,99535.20
2023-03-06T01:24:10.309Z,99530.77
2023-03-06T01:26:36.962Z,99525.95
2023-03-06T01:29:03.637Z,99523.89
2023-03-06T01:31:30.385Z,99518.98
2023-03-06T01:33:56.875Z,99519.35
2023-03-06T01:36:23.643Z,99514.70
2023-03-06T01:38:50.251Z,99508.08
2023-03-06T01:41:16.792Z,99509.55
2023-03-06T01:43:45.230Z,99508.80
2023-03-06T01:46:41.537Z,99503.48
2023-03-06T01:49:14.095Z,99503.98
2023-03-06T01:51:45.549Z,99504.46
2023-03-06T01:54:15.805Z,99501.16
2023-03-06T01:56:44.671Z,99501.50
2023-03-06T01:59:11.792Z,99495.08
2023-03-06T02:01:39.483Z,99494.48
2023-03-06T02:04:09.373Z,99494.12
2023-03-06T02:06:38.537Z,99496.26
2023-03-06T02:09:05.710Z,99495.71
2023-03-06T02:11:32.376Z,99493.13
2023-03-06T02:13:59.338Z,99487.82
2023-03-06T02:16:28.390Z,99490.45
2023-03-06T02:18:55.357Z,99483.76
2023-03-06T02:21:25.407Z,99478.04
2023-03-06T02:24:33.514Z,99475.58
2023-03-06T02:27:01.641Z,99471.64
2023-03-06T02:29:29.567Z,99466.12
2023-03-06T02:31:56.059Z,99464.55
2023-03-06T02:34:22.686Z,99457.11
2023-03-06T02:36:59.084Z,99454.77
2023-03-06T02:39:28.015Z,99453.07
2023-03-06T02:41:54.647Z,99447.74
2023-03-06T02:44:22.859Z,99448.29
2023-03-06T02:46:49.516Z,99448.45
2023-03-06T02:49:16.002Z,99445.34
2023-03-06T02:51:42.627Z,99440.60
2023-03-06T02:54:10.569Z,99438.00
2023-03-06T02:56:37.339Z,99436.02
2023-03-06T02:59:03.688Z,99433.45
2023-03-06T03:01:30.369Z,99434.97
2023-03-06T03:03:59.475Z,99424.80
2023-03-06T03:06:28.596Z,99426.23
2023-03-06T03:08:55.235Z,99427.14
2023-03-06T03:11:21.760Z,99422.95
2023-03-06T03:13:48.410Z,99419.98
2023-03-06T03:16:15.670Z,99419.52
2023-03-06T03:18:47.361Z,99414.13
2023-03-06T03:21:14.358Z,99410.90
2023-03-06T03:23:41.056Z,99406.99
2023-03-06T03:26:12.251Z,99405.12
2023-03-06T03:28:38.970Z,99403.37
2023-03-06T03:31:08.240Z,99403.12
2023-03-06T03:33:34.922Z,99397.50
2023-03-06T03:36:03.669Z,99390.52
2023-03-06T03:38:31.007Z,99390.05
2023-03-06T03:40:57.606Z,99388.08
2023-03-06T03:43:24.085Z,99383.63
2023-03-06T03:45:52.884Z,99378.90
2023-03-06T03:48:19.756Z,99377.44
2023-03-06T03:50:46.250Z,99374.63
2023-03-06T03:53:12.844Z,99369.59
2023-03-06T03:55:39.436Z,99368.00
2023-03-06T03:58:06.016Z,99368.61
2023-03-06T04:00:32.798Z,99369.83
2023-03-06T04:02:59.354Z,99362.23
2023-03-06T04:05:25.962Z,99360.09
2023-03-06T04:07:52.577Z,99361.65
2023-03-06T04:10:18.981Z,99360.34
2023-03-06T04:12:45.601Z,99352.56
2023-03-06T04:15:12.330Z,99346.55
2023-03-06T04:17:38.676Z,99342.55
2023-03-06T04:20:05.614Z,99346.70
2023-03-06T04:22:32.275Z,99345.66
2023-03-06T04:24:59.113Z,99341.92
2023-03-06T04:27:25.638Z,99335.59
2023-03-06T04:29:55.707Z,99336.64
2023-03-06T04:32:23.391Z,99332.98
2023-03-06T04:34:49.997Z,99332.86
2023-03-06T04:37:20.480Z,99334.48
2023-03-06T04:39:47.175Z,99330.45
2023-03-06T04:42:13.861Z,99328.73
2023-03-06T04:44:40.589Z,99325.56
2023-03-06T04:47:07.034Z,99321.70
2023-03-06T04:49:33.595Z,99317.95
2023-03-06T04:52:00.680Z,99322.46
2023-03-06T04:54:27.266Z,99323.38
2023-03-06T04:56:53.775Z,99317.05
2023-03-06T04:59:20.319Z,99318.61
2023-03-06T05:01:46.937Z,99318.27
2023-03-06T05:04:13.588Z,99317.63
2023-03-06T05:06:40.421Z,99314.06
2023-03-06T05:09:06.980Z,99319.49
2023-03-06T05:11:33.512Z,99316.61
2023-03-06T05:14:00.178Z,99312.46
2023-03-06T05:16:26.886Z,99316.67
2023-03-06T05:18:53.250Z,99310.73
2023-03-06T05:21:20.087Z,99315.40
2023-03-06T05:23:47.111Z,99308.69
2023-03-06T05:26:14.292Z,99311.33
2023-03-06T05:28:41.262Z,99312.91
2023-03-06T05:31:07.608Z,99313.96
2023-03-06T05:33:35.358Z,99310.98
2023-03-06T05:36:02.855Z,99308.67
2023-03-06T05:38:29.449Z,99308.59
2023-03-06T05:40:55.969Z,99306.21
2023-03-06T05:43:22.494Z,99296.09
2023-03-06T05:45:49.998Z,99307.52
2023-03-06T05:48:16.424Z,99311.27
2023-03-06T05:50:43.166Z,99309.19
2023-03-06T05:53:09.770Z,99312.04
2023-03-06T05:55:36.259Z,99310.81
2023-03-06T05:58:02.989Z,99308.70
2023-03-06T06:00:29.580Z,99306.65
2023-03-06T06:02:56.049Z,99304.70
2023-03-06T06:05:22.658Z,99299.69
2023-03-06T06:07:49.119Z,99307.80
2023-03-06T06:10:17.118Z,99303.39
2023-03-06T06:12:43.928Z,99307.04
2023-03-06T06:15:10.582Z,99309.84
2023-03-06T06:17:37.046Z,99309.38
2023-03-06T06:20:04.509Z,99304.12
2023-03-06T06:22:31.251Z,99309.66
2023-03-06T06:24:57.858Z,99310.46
2023-03-06T06:27:24.720Z,99312.84
2023-03-06T06:29:54.936Z,99314.96
2023-03-06T06:32:21.448Z,99317.85
2023-03-06T06:34:48.008Z,99319.12
2023-03-06T06:37:14.477Z,99318.15
2023-03-06T06:39:40.855Z,99315.10
2023-03-06T06:42:28.926Z,99319.38
2023-03-06T06:44:56.036Z,99315.66
2023-03-06T06:47:41.851Z,99319.79
2023-03-06T06:50:12.952Z,99318.35
2023-03-06T06:52:39.731Z,99316.31
2023-03-06T06:55:06.732Z,99320.55
2023-03-06T06:57:33.176Z,99318.20
2023-03-06T06:59:59.846Z,99318.46
2023-03-06T07:02:26.520Z,99315.77
2023-03-06T07:05:03.592Z,99313.93
2023-03-06T07:07:34.020Z,99314.98
2023-03-06T07:10:00.687Z,99313.48
2023-03-06T07:12:27.260Z,99312.61
2023-03-06T07:14:53.877Z,99315.70
2023-03-06T07:17:20.655Z,99313.88
2023-03-06T07:19:47.643Z,99313.05
2023-03-06T07:22:14.055Z,99316.46
2023-03-06T07:24:40.568Z,99319.60
2023-03-06T07:27:07.002Z,99319.57
2023-03-06T07:29:34.147Z,99320.41
2023-03-06T07:32:01.370Z,99325.23
2023-03-06T07:34:27.945Z,99325.55
2023-03-06T07:36:54.537Z,99325.38
2023-03-06T07:39:21.112Z,99326.99
2023-03-06T07:41:47.725Z,99328.11
2023-03-06T07:44:14.219Z,99320.11
2023-03-06T07:46:41.071Z,99330.52
2023-03-06T07:49:07.555Z,99331.04
2023-03-06T07:51:34.178Z,99332.73
2023-03-06T07:54:00.952Z,99329.88
2023-03-06T07:56:27.413Z,99332.98
2023-03-06T07:58:55.971Z,99332.88
2023-03-06T08:01:25.842Z,99332.08
2023-03-06T08:03:53.157Z,99333.38
2023-03-06T08:06:22.580Z,99331.69
2023-03-06T08:08:50.278Z,99334.75
2023-03-06T08:11:18.983Z,99335.10
2023-03-06T08:13:47.906Z,99332.94
2023-03-06T08:16:16.860Z,99333.20
2023-03-06T08:18:45.850Z,99334.64
2023-03-06T08:21:15.850Z,99333.38
2023-03-06T08:23:42.796Z,99335.00
2023-03-06T08:26:15.951Z,99330.42
2023-03-06T08:28:42.666Z,99330.95
2023-03-06T08:31:33.800Z,99330.41
2023-03-06T08:34:02.880Z,99332.46
2023-03-06T08:36:29.322Z,99331.41
2023-03-06T08:38:56.284Z,99332.21
2023-03-06T08:41:23.835Z,99333.61
2023-03-06T08:43:50.861Z,99331.38
2023-03-06T08:46:18.300Z,99333.04
2023-03-06T08:48:47.323Z,99334.04
2023-03-06T08:51:14.535Z,99333.39
2023-03-06T08:53:43.434Z,99335.59
2023-03-06T08:56:19.159Z,99334.64
2023-03-06T08:58:46.416Z,99332.33
2023-03-06T09:01:21.195Z,99334.30
2023-03-06T09:03:48.456Z,99329.06
2023-03-06T09:06:15.549Z,99333.27
2023-03-06T09:08:43.975Z,99333.23
2023-03-06T09:11:11.616Z,99335.35
2023-03-06T09:13:38.664Z,99336.36
2023-03-06T09:16:06.616Z,99333.52
2023-03-06T09:18:32.998Z,99335.71
2023-03-06T09:20:59.857Z,99334.05
2023-03-06T09:23:26.943Z,99331.90
2023-03-06T09:25:54.919Z,99334.16
2023-03-06T09:28:21.691Z,99333.36
2023-03-06T09:30:48.387Z,99332.02
2023-03-06T09:33:15.689Z,99330.47
2023-03-06T09:35:46.098Z,99330.59
2023-03-06T09:38:13.118Z,99327.89
2023-03-06T09:40:59.927Z,99325.79
2023-03-06T09:43:45.378Z,99331.58
2023-03-06T09:46:40.056Z,99320.36
2023-03-06T09:49:21.160Z,99321.98
2023-03-06T09:51:54.140Z,99320.06
2023-03-06T09:54:22.846Z,99317.54
2023-03-06T09:56:50.283Z,99317.48
2023-03-06T09:59:22.712Z,99319.04
2023-03-06T10:02:15.838Z,99316.29
2023-03-06T10:04:58.768Z,99320.88
2023-03-06T10:07:41.131Z,99316.91
2023-03-06T10:10:22.119Z,99316.00
2023-03-06T10:13:03.388Z,99318.67
2023-03-06T10:15:35.501Z,99315.02
2023-03-06T10:18:03.454Z,99314.10
2023-03-06T10:20:39.703Z,99310.95
2023-03-06T10:23:28.028Z,99308.66
2023-03-06T10:26:25.071Z,99302.77
2023-03-06T10:29:13.493Z,99299.52
2023-03-06T10:31:44.260Z,99294.36
2023-03-06T10:34:18.423Z,99289.95
2023-03-06T10:36:45.058Z,99288.91
2023-03-06T10:39:21.176Z,99287.38
2023-03-06T10:41:48.817Z,99284.90
2023-03-06T10:44:15.491Z,99282.91
2023-03-06T10:46:47.694Z,99278.23
2023-03-06T10:49:29.784Z,99277.38
2023-03-06T10:51:59.210Z,99269.75
2023-03-06T10:54:26.549Z,99267.96
2023-03-06T10:56:53.298Z,99263.42
2023-03-06T10:59:27.590Z,99260.70
2023-03-06T11:01:56.861Z,99260.30
2023-03-06T11:04:27.769Z,99258.21
2023-03-06T11:07:17.416Z,99258.45
2023-03-06T11:10:16.565Z,99251.95
2023-03-06T11:12:44.075Z,99254.27
2023-03-06T11:15:13.601Z,99249.90
2023-03-06T11:18:08.459Z,99248.77
2023-03-06T11:20:51.990Z,99251.85
2023-03-06T11:23:42.123Z,99247.38
2023-03-06T11:26:17.382Z,99249.13
2023-03-06T11:29:06.347Z,99243.05
2023-03-06T11:31:49.231Z,99240.95
2023-03-06T11:34:36.132Z,99246.33
2023-03-06T11:37:24.454Z,99243.71
2023-03-06T11:39:57.580Z,99234.27
2023-03-06T11:42:29.821Z,99239.16
2023-03-06T11:45:24.958Z,99236.45
2023-03-06T11:48:01.119Z,99238.09
2023-03-06T11:50:33.506Z,99233.96
2023-03-06T11:53:02.247Z,99224.88
2023-03-06T11:55:34.697Z,99226.22
2023-03-06T11:58:32.353Z,99224.57
2023-03-06T12:01:28.220Z,99220.99
2023-03-06T12:04:13.876Z,99218.69
2023-03-06T12:06:44.565Z,99211.71
2023-03-06T12:09:14.062Z,99202.91
2023-03-06T12:11:59.537Z,99198.88
2023-03-06T12:14:35.820Z,99196.91
2023-03-06T12:17:09.138Z,99193.40
2023-03-06T12:19:35.668Z,99186.58
2023-03-06T12:22:23.663Z,99181.80
2023-03-06T12:25:21.402Z,99178.67
2023-03-06T12:28:25.985Z,99184.44
2023-03-06T12:31:17.246Z,99182.80
2023-03-06T12:33:57.551Z,99182.45
2023-03-06T12:37:01.883Z,99182.84
2023-03-06T12:39:39.418Z,99182.04
2023-03-06T12:42:23.492Z,99182.51
2023-03-06T12:45:04.956Z,99180.48
2023-03-06T12:47:38.274Z,99184.11
2023-03-06T12:50:17.031Z,99185.67
2023-03-06T12:52:43.636Z,99186.17
2023-03-06T12:55:16.012Z,99191.49
2023-03-06T12:57:42.984Z,99186.80
2023-03-06T13:00:31.554Z,99186.43
2023-03-06T13:03:09.842Z,99191.86
2023-03-06T13:05:39.733Z,99189.56
2023-03-06T13:08:15.491Z,99186.94
2023-03-06T13:10:43.537Z,99185.91
2023-03-06T13:13:28.854Z,99187.07
2023-03-06T13:16:15.691Z,99183.73
2023-03-06T13:18:42.332Z,99185.50
2023-03-06T13:21:46.682Z,99191.88
2023-03-06T13:24:35.508Z,99191.60
2023-03-06T13:27:07.485Z,99193.98
2023-03-06T13:29:37.043Z,99193.38
2023-03-06T13:32:03.680Z,99197.41
2023-03-06T13:34:36.011Z,99193.83
2023-03-06T13:37:18.196Z,99202.39
2023-03-06T13:39:59.854Z,99198.50
2023-03-06T13:42:31.698Z,99201.77
2023-03-06T13:45:23.061Z,99202.11
2023-03-06T13:50:43.355Z,99205.20
2023-03-06T13:53:28.239Z,99204.92
2023-03-06T13:56:29.208Z,99207.14
2023-03-06T13:59:02.091Z,99207.76
2023-03-06T14:01:58.669Z,99201.36
2023-03-06T14:04:32.162Z,99187.19
2023-03-06T14:06:58.965Z,99178.53
2023-03-06T14:09:33.428Z,99170.38
2023-03-06T14:12:24.404Z,99165.90
2023-03-06T14:14:59.199Z,99166.27
2023-03-06T14:17:30.581Z,99162.05
2023-03-06T14:20:01.651Z,99163.90
2023-03-06T14:22:28.148Z,99160.03
2023-03-06T14:25:00.740Z,99159.81
2023-03-06T14:27:48.732Z,99153.23
2023-03-06T14:30:18.060Z,99152.52
2023-03-06T14:32:44.659Z,99152.19
2023-03-06T14:35:20.346Z,99150.15
2023-03-06T14:37:49.740Z,99149.10
2023-03-06T14:40:41.298Z,99148.95
2023-03-06T14:43:20.195Z,99145.96
2023-03-06T14:45:49.685Z,99145.84
2023-03-06T14:48:16.438Z,99142.17
2023-03-06T14:50:47.894Z,99137.99
2023-03-06T14:53:17.228Z,99140.71
2023-03-06T14:55:57.210Z,99138.40
2023-03-06T14:58:34.434Z,99138.92
2023-03-06T15:01:06.513Z,99137.23
2023-03-06T15:03:46.428Z,99135.16
2023-03-06T15:06:21.786Z,99135.80
2023-03-06T15:08:57.231Z,99135.41
2023-03-06T15:11:23.598Z,99134.83
2023-03-06T15:14:04.250Z,99131.63
2023-03-06T15:16:31.022Z,99132.44
2023-03-06T15:19:02.489Z,99135.02
2023-03-06T15:21:36.016Z,99137.35
2023-03-06T15:24:28.439Z,99138.78
2023-03-06T15:26:55.359Z,99136.25
2023-03-06T15:32:33.603Z,99140.95
2023-03-06T15:35:26.861Z,99139.88
2023-03-06T15:37:53.778Z,99138.36
2023-03-06T15:40:20.837Z,99137.88
2023-03-06T15:42:49.517Z,99134.27
2023-03-06T15:45:19.203Z,99133.61
2023-03-06T15:47:48.196Z,99131.91
2023-03-06T15:50:23.380Z,99134.15
2023-03-06T15:52:49.981Z,99128.63
2023-03-06T15:55:19.210Z,99128.55
2023-03-06T15:58:08.382Z,99128.23
2023-03-06T16:00:40.414Z,99129.18
2023-03-06T16:03:10.459Z,99131.55
2023-03-06T16:05:37.958Z,99129.63
2023-03-06T16:08:05.394Z,99131.13
2023-03-06T16:10:36.302Z,99132.66
2023-03-06T16:13:09.157Z,99132.70
2023-03-06T16:15:39.359Z,99132.42
2023-03-06T16:18:06.278Z,99131.89
2023-03-06T16:20:33.193Z,99130.46
2023-03-06T16:22:59.761Z,99133.84
2023-03-06T16:25:27.844Z,99131.55
2023-03-06T16:27:59.140Z,99133.73
2023-03-06T16:30:28.493Z,99135.02
2023-03-06T16:32:54.920Z,99139.11
2023-03-06T16:35:21.489Z,99138.25
2023-03-06T16:37:48.280Z,99138.58
2023-03-06T16:40:28.461Z,99134.88
2023-03-06T16:42:55.372Z,99139.41
2023-03-06T16:45:22.693Z,99137.86
2023-03-06T16:47:49.432Z,99139.27
2023-03-06T16:50:28.166Z,99138.15
2023-03-06T16:52:56.028Z,99144.79
2023-03-06T16:55:23.608Z,99139.46
2023-03-06T16:57:50.826Z,99143.30
2023-03-06T17:00:18.498Z,99148.73
2023-03-06T17:02:47.742Z,99147.95
2023-03-06T17:05:14.454Z,99153.04
2023-03-06T17:07:41.403Z,99149.56
2023-03-06T17:10:10.507Z,99153.17
2023-03-06T17:12:37.427Z,99152.23
2023-03-06T17:15:05.843Z,99150.30
2023-03-06T17:17:32.854Z,99157.42
2023-03-06T17:19:59.540Z,99155.67
2023-03-06T17:22:26.670Z,99154.63
2023-03-06T17:24:53.510Z,99154.95
2023-03-06T17:27:21.659Z,99154.70
2023-03-06T17:29:48.390Z,99156.31
2023-03-06T17:32:14.953Z,99156.58
2023-03-06T17:34:41.852Z,99156.02
2023-03-06T17:37:08.407Z,99152.92
2023-03-06T17:39:36.620Z,99150.93
2023-03-06T17:42:04.353Z,99158.92
2023-03-06T17:44:32.008Z,99160.34
2023-03-06T17:46:58.591Z,99162.63
2023-03-06T17:49:25.192Z,99165.11
2023-03-06T17:51:52.252Z,99166.04
2023-03-06T17:54:19.150Z,99167.90
2023-03-06T17:56:46.004Z,99170.19
2023-03-06T17:59:12.472Z,99168.36
2023-03-06T18:01:40.467Z,99171.58
2023-03-06T18:04:07.161Z,99169.34
2023-03-06T18:06:33.800Z,99172.55
2023-03-06T18:09:01.109Z,99171.44
2023-03-06T18:11:27.811Z,99176.48
2023-03-06T18:13:54.658Z,99175.89
2023-03-06T18:16:23.343Z,99178.11
2023-03-06T18:18:54.902Z,99177.72
2023-03-06T18:21:23.494Z,99177.23
2023-03-06T18:23:50.241Z,99177.23
2023-03-06T18:26:17.177Z,99177.31
2023-03-06T18:28:46.707Z,99182.20
2023-03-06T18:31:24.042Z,99184.77
2023-03-06T18:33:51.882Z,99183.03
2023-03-06T18:36:19.100Z,99182.04
2023-03-06T18:38:45.924Z,99184.95
2023-03-06T18:41:12.919Z,99189.29
2023-03-06T18:43:39.641Z,99186.30
2023-03-06T18:46:06.721Z,99191.06
2023-03-06T18:48:33.562Z,99188.95
2023-03-06T18:51:07.964Z,99190.76
2023-03-06T18:53:39.541Z,99189.36
2023-03-06T18:56:09.040Z,99194.55
2023-03-06T18:58:36.054Z,99192.44
2023-03-06T19:01:06.697Z,99192.95
2023-03-06T19:03:33.409Z,99193.98
2023-03-06T19:06:03.036Z,99195.38
2023-03-06T19:08:30.184Z,99198.15
2023-03-06T19:11:03.073Z,99195.02
2023-03-06T19:13:30.511Z,99189.71
2023-03-06T19:15:57.085Z,99192.15
2023-03-06T19:18:25.134Z,99197.13
2023-03-06T19:20:52.689Z,99196.60
2023-03-06T19:23:20.816Z,99202.98
2023-03-06T19:26:06.842Z,99200.77
2023-03-06T19:28:36.137Z,99201.58
2023-03-06T19:31:21.166Z,99202.20
2023-03-06T19:33:49.113Z,99200.27
2023-03-06T19:36:16.714Z,99212.44
2023-03-06T19:38:43.464Z,99214.16
2023-03-06T19:41:12.886Z,99215.39
2023-03-06T19:43:41.149Z,99210.84
2023-03-06T19:46:12.820Z,99210.55
2023-03-06T19:48:40.636Z,99211.14
2023-03-06T19:51:07.384Z,99207.45
2023-03-06T19:53:38.520Z,99207.48
2023-03-06T19:56:13.130Z,99208.89
2023-03-06T19:58:40.319Z,99212.00
2023-03-06T20:01:12.573Z,99216.08
2023-03-06T20:03:39.509Z,99219.71
2023-03-06T20:06:08.574Z,99224.68
2023-03-06T20:08:35.913Z,99219.80
2023-03-06T20:11:02.515Z,99227.09
2023-03-06T20:13:29.879Z,99229.21
2023-03-06T20:15:57.452Z,99227.05
2023-03-06T20:18:23.899Z,99234.04
2023-03-06T20:21:00.879Z,99232.17
2023-03-06T20:23:27.857Z,99229.55
2023-03-06T20:25:54.199Z,99230.63
2023-03-06T20:28:21.760Z,99233.05
2023-03-06T20:30:48.228Z,99235.31
2023-03-06T20:33:16.470Z,99236.29
2023-03-06T20:35:43.720Z,99239.16
2023-03-06T20:38:10.507Z,99241.18
2023-03-06T20:40:39.341Z,99239.45
2023-03-06T20:43:06.346Z,99240.60
2023-03-06T20:45:33.613Z,99236.38
2023-03-06T20:48:00.764Z,99234.69
2023-03-06T20:50:27.586Z,99230.67
2023-03-06T20:52:58.221Z,99229.27
2023-03-06T20:55:24.856Z,99229.71
2023-03-06T20:57:51.753Z,99231.94
2023-03-06T21:00:18.481Z,99230.98
2023-03-06T21:02:44.920Z,99233.31
2023-03-06T21:05:12.406Z,99228.63
2023-03-06T21:07:39.010Z,99227.98
2023-03-06T21:10:06.132Z,99227.52
2023-03-06T21:12:32.757Z,99230.80
2023-03-06T21:14:59.422Z,99229.80
2023-03-06T21:17:29.549Z,99226.23
2023-03-06T21:19:57.004Z,99224.39
2023-03-06T21:22:23.792Z,99224.77
2023-03-06T21:24:50.269Z,99225.59
2023-03-06T21:27:16.672Z,99222.27
2023-03-06T21:29:43.945Z,99220.79
2023-03-06T21:32:10.679Z,99224.06
2023-03-06T21:34:37.184Z,99222.59
2023-03-06T21:37:03.997Z,99224.04
2023-03-06T21:39:30.484Z,99221.63
2023-03-06T21:41:57.348Z,99220.84
2023-03-06T21:44:23.795Z,99222.74
2023-03-06T21:46:50.166Z,99224.01
2023-03-06T21:49:17.850Z,99219.98
2023-03-06T21:51:44.312Z,99218.14
2023-03-06T21:54:12.630Z,99217.67
2023-03-06T21:56:39.147Z,99216.73
2023-03-06T21:59:05.682Z,99221.64
2023-03-06T22:01:32.028Z,99223.33
2023-03-06T22:03:59.452Z,99222.44
2023-03-06T22:06:28.143Z,99215.23
2023-03-06T22:08:58.673Z,99212.17
2023-03-06T22:11:26.668Z,99213.04
2023-03-06T22:13:53.318Z,99212.17
2023-03-06T22:16:20.174Z,99215.73
2023-03-06T22:18:47.759Z,99211.63
2023-03-06T22:21:16.136Z,99210.18
2023-03-06T22:23:42.991Z,99207.30
2023-03-06T22:26:13.810Z,99207.48
2023-03-06T22:28:41.422Z,99206.08
2023-03-06T22:31:10.518Z,99204.76
2023-03-06T22:33:37.133Z,99209.61
2023-03-06T22:36:12.473Z,99205.27
2023-03-06T22:38:41.728Z,99207.10
2023-03-06T22:41:09.657Z,99204.73
2023-03-06T22:43:36.834Z,99203.25
2023-03-06T22:46:15.764Z,99199.90
2023-03-06T22:48:43.462Z,99197.98
2023-03-06T22:51:15.588Z,99203.65
2023-03-06T22:53:42.544Z,99203.73
2023-03-06T22:56:11.938Z,99206.32
2023-03-06T22:58:39.771Z,99206.42
2023-03-06T23:01:11.966Z,99203.77
2023-03-06T23:03:40.676Z,99205.48
2023-03-06T23:06:16.443Z,99203.26
2023-03-06T23:08:46.027Z,99201.25
2023-03-06T23:11:15.506Z,99198.70
2023-03-06T23:13:42.205Z,99197.39
2023-03-06T23:16:09.155Z,99200.99
2023-03-06T23:18:37.023Z,99201.39
2023-03-06T23:21:17.834Z,99199.77
2023-03-06T23:23:47.741Z,99200.95
2023-03-06T23:26:14.949Z,99200.13
2023-03-06T23:28:42.187Z,99199.77
2023-03-06T23:31:13.594Z,99203.84
2023-03-06T23:33:40.522Z,99205.20
2023-03-06T23:36:09.562Z,99209.70
2023-03-06T23:38:37.074Z,99210.79
2023-03-06T23:41:15.982Z,99209.99
2023-03-06T23:43:42.763Z,99206.33
2023-03-06T23:46:09.691Z,99203.70
2023-03-06T23:48:38.658Z,99205.64
2023-03-06T23:51:11.445Z,99201.64
2023-03-06T23:53:38.075Z,99200.48
2023-03-06T23:56:05.890Z,99199.45
2023-03-06T23:58:32.911Z,99197.46
